sensor_id;sensor_type;location;lat;lon;timestamp;pressure;altitude;pressure_sealevel;temperature;humidity
40612;BME280;26317;44.894;20.286;2023-10-13T00:01:51;101061.53;;;17.34;78.67
40612;BME280;26317;44.894;20.286;2023-10-13T00:04:32;101059.53;;;17.26;78.73
40612;BME280;26317;44.894;20.286;2023-10-13T00:07:14;101067.16;;;17.24;78.87
40612;BME280;26317;44.894;20.286;2023-10-13T00:09:56;101069.97;;;17.19;79.24
40612;BME280;26317;44.894;20.286;2023-10-13T00:12:29;101068.97;;;17.15;79.37
40612;BME280;26317;44.894;20.286;2023-10-13T00:15:11;101059.72;;;17.16;79.10
40612;BME280;26317;44.894;20.286;2023-10-13T00:17:51;101058.72;;;17.12;79.24
40612;BME280;26317;44.894;20.286;2023-10-13T00:20:36;101063.66;;;17.10;79.64
40612;BME280;26317;44.894;20.286;2023-10-13T00:23:13;101041.16;;;16.96;79.80
40612;BME280;26317;44.894;20.286;2023-10-13T00:26:02;101048.56;;;17.04;80.24
40612;BME280;26317;44.894;20.286;2023-10-13T00:28:45;101043.84;;;16.96;80.29
40612;BME280;26317;44.894;20.286;2023-10-13T00:31:30;101053.59;;;16.97;80.25
40612;BME280;26317;44.894;20.286;2023-10-13T00:34:09;101047.66;;;16.95;80.89
40612;BME280;26317;44.894;20.286;2023-10-13T00:37:03;101050.97;;;16.92;80.56
40612;BME280;26317;44.894;20.286;2023-10-13T00:39:52;101045.16;;;16.85;80.93
40612;BME280;26317;44.894;20.286;2023-10-13T00:42:32;101047.97;;;16.80;81.21
40612;BME280;26317;44.894;20.286;2023-10-13T00:45:33;101050.75;;;16.75;81.64
40612;BME280;26317;44.894;20.286;2023-10-13T00:48:13;101055.97;;;16.71;81.88
40612;BME280;26317;44.894;20.286;2023-10-13T00:50:47;101057.38;;;16.69;82.24
40612;BME280;26317;44.894;20.286;2023-10-13T00:53:28;101066.41;;;16.64;82.47
40612;BME280;26317;44.894;20.286;2023-10-13T00:56:15;101067.78;;;16.62;82.84
40612;BME280;26317;44.894;20.286;2023-10-13T00:59:17;101085.22;;;16.55;83.82
40612;BME280;26317;44.894;20.286;2023-10-13T01:01:51;101081.97;;;16.53;84.07
40612;BME280;26317;44.894;20.286;2023-10-13T01:04:36;101080.41;;;16.52;84.19
40612;BME280;26317;44.894;20.286;2023-10-13T01:07:10;101077.16;;;16.50;83.94
40612;BME280;26317;44.894;20.286;2023-10-13T01:09:56;101076.66;;;16.48;84.41
40612;BME280;26317;44.894;20.286;2023-10-13T01:12:48;101079.66;;;16.47;83.91
40612;BME280;26317;44.894;20.286;2023-10-13T01:15:29;101070.53;;;16.43;84.06
40612;BME280;26317;44.894;20.286;2023-10-13T01:18:08;101074.84;;;16.44;84.36
40612;BME280;26317;44.894;20.286;2023-10-13T01:20:52;101065.72;;;16.40;84.25
40612;BME280;26317;44.894;20.286;2023-10-13T01:23:33;101080.56;;;16.42;84.48
40612;BME280;26317;44.894;20.286;2023-10-13T01:26:15;101071.94;;;16.40;84.56
40612;BME280;26317;44.894;20.286;2023-10-13T01:29:11;101069.31;;;16.35;84.65
40612;BME280;26317;44.894;20.286;2023-10-13T01:32:05;101072.00;;;16.35;84.61
40612;BME280;26317;44.894;20.286;2023-10-13T01:34:56;101079.13;;;16.31;84.94
40612;BME280;26317;44.894;20.286;2023-10-13T01:37:38;101089.22;;;16.26;85.02
40612;BME280;26317;44.894;20.286;2023-10-13T01:40:21;101081.75;;;16.18;85.30
40612;BME280;26317;44.894;20.286;2023-10-13T01:42:59;101083.72;;;16.12;85.86
40612;BME280;26317;44.894;20.286;2023-10-13T01:45:32;101087.03;;;16.09;85.33
40612;BME280;26317;44.894;20.286;2023-10-13T01:48:20;101084.31;;;16.09;85.25
40612;BME280;26317;44.894;20.286;2023-10-13T01:50:56;101057.28;;;15.90;85.65
40612;BME280;26317;44.894;20.286;2023-10-13T01:53:34;101081.75;;;15.99;86.04
40612;BME280;26317;44.894;20.286;2023-10-13T01:56:14;101076.13;;;15.95;86.51
40612;BME280;26317;44.894;20.286;2023-10-13T01:58:59;101080.75;;;15.95;86.17
40612;BME280;26317;44.894;20.286;2023-10-13T02:01:34;101093.19;;;15.96;86.75
40612;BME280;26317;44.894;20.286;2023-10-13T02:04:15;101085.38;;;15.94;87.00
40612;BME280;26317;44.894;20.286;2023-10-13T02:07:00;101087.56;;;15.92;86.93
40612;BME280;26317;44.894;20.286;2023-10-13T02:09:33;101093.25;;;15.91;86.75
40612;BME280;26317;44.894;20.286;2023-10-13T02:12:26;101084.34;;;15.90;86.85
40612;BME280;26317;44.894;20.286;2023-10-13T02:15:09;101084.09;;;15.87;86.61
40612;BME280;26317;44.894;20.286;2023-10-13T02:17:47;101073.88;;;15.84;86.36
40612;BME280;26317;44.894;20.286;2023-10-13T02:20:20;101085.50;;;15.84;86.75
40612;BME280;26317;44.894;20.286;2023-10-13T02:23:04;101085.50;;;15.84;86.35
40612;BME280;26317;44.894;20.286;2023-10-13T02:25:42;101088.28;;;15.79;87.19
40612;BME280;26317;44.894;20.286;2023-10-13T02:28:28;101090.47;;;15.77;87.27
40612;BME280;26317;44.894;20.286;2023-10-13T02:31:06;101088.66;;;15.73;87.84
40612;BME280;26317;44.894;20.286;2023-10-13T02:33:41;101083.84;;;15.70;87.60
40612;BME280;26317;44.894;20.286;2023-10-13T02:36:17;101068.81;;;15.58;87.62
40612;BME280;26317;44.894;20.286;2023-10-13T02:38:53;101080.59;;;15.68;87.88
40612;BME280;26317;44.894;20.286;2023-10-13T02:41:31;101093.59;;;15.65;88.30
40612;BME280;26317;44.894;20.286;2023-10-13T02:44:23;101088.78;;;15.62;88.19
40612;BME280;26317;44.894;20.286;2023-10-13T02:47:07;101099.81;;;15.66;88.20
40612;BME280;26317;44.894;20.286;2023-10-13T02:49:50;101098.22;;;15.65;88.53
40612;BME280;26317;44.894;20.286;2023-10-13T02:52:24;101089.81;;;15.67;88.61
40612;BME280;26317;44.894;20.286;2023-10-13T02:55:16;101096.38;;;15.60;89.22
40612;BME280;26317;44.894;20.286;2023-10-13T02:57:57;101086.06;;;15.62;89.33
40612;BME280;26317;44.894;20.286;2023-10-13T03:00:36;101095.56;;;15.60;89.13
40612;BME280;26317;44.894;20.286;2023-10-13T03:03:15;101084.53;;;15.56;89.28
40612;BME280;26317;44.894;20.286;2023-10-13T03:05:58;101088.06;;;15.57;89.40
40612;BME280;26317;44.894;20.286;2023-10-13T03:08:35;101089.34;;;15.59;89.09
40612;BME280;26317;44.894;20.286;2023-10-13T03:11:18;101086.66;;;15.59;88.91
40612;BME280;26317;44.894;20.286;2023-10-13T03:14:05;101080.22;;;15.55;88.93
40612;BME280;26317;44.894;20.286;2023-10-13T03:17:18;101069.69;;;15.54;89.47
40612;BME280;26317;44.894;20.286;2023-10-13T03:20:09;101061.59;;;15.49;89.36
40612;BME280;26317;44.894;20.286;2023-10-13T03:22:45;101067.59;;;15.46;89.83
40612;BME280;26317;44.894;20.286;2023-10-13T03:25:39;101072.78;;;15.42;90.13
40612;BME280;26317;44.894;20.286;2023-10-13T03:28:13;101076.88;;;15.40;90.01
40612;BME280;26317;44.894;20.286;2023-10-13T03:31:07;101065.31;;;15.34;90.38
40612;BME280;26317;44.894;20.286;2023-10-13T03:34:04;101071.59;;;15.30;90.01
40612;BME280;26317;44.894;20.286;2023-10-13T03:36:39;101081.00;;;15.32;90.11
40612;BME280;26317;44.894;20.286;2023-10-13T03:39:26;101068.06;;;15.29;90.25
40612;BME280;26317;44.894;20.286;2023-10-13T03:42:05;101071.31;;;15.31;90.35
40612;BME280;26317;44.894;20.286;2023-10-13T03:44:48;101070.78;;;15.29;90.52
40612;BME280;26317;44.894;20.286;2023-10-13T03:47:30;101060.81;;;15.25;90.50
40612;BME280;26317;44.894;20.286;2023-10-13T03:50:18;101073.47;;;15.29;90.79
40612;BME280;26317;44.894;20.286;2023-10-13T03:52:58;101075.59;;;15.32;90.61
40612;BME280;26317;44.894;20.286;2023-10-13T03:55:38;101080.50;;;15.30;90.56
40612;BME280;26317;44.894;20.286;2023-10-13T03:58:26;101083.47;;;15.29;90.74
40612;BME280;26317;44.894;20.286;2023-10-13T04:01:04;101084.28;;;15.29;90.70
40612;BME280;26317;44.894;20.286;2023-10-13T04:03:42;101074.28;;;15.30;89.86
40612;BME280;26317;44.894;20.286;2023-10-13T04:06:44;101083.22;;;15.30;89.20
40612;BME280;26317;44.894;20.286;2023-10-13T04:09:44;101075.69;;;15.27;89.11
40612;BME280;26317;44.894;20.286;2023-10-13T04:12:40;101078.66;;;15.26;89.21
40612;BME280;26317;44.894;20.286;2023-10-13T04:15:40;101080.56;;;15.25;89.41
40612;BME280;26317;44.894;20.286;2023-10-13T04:18:39;101089.25;;;15.22;89.33
40612;BME280;26317;44.894;20.286;2023-10-13T04:21:37;101097.84;;;15.24;90.13
40612;BME280;26317;44.894;20.286;2023-10-13T04:24:30;101088.22;;;15.18;90.65
40612;BME280;26317;44.894;20.286;2023-10-13T04:27:40;101092.53;;;15.19;90.48
40612;BME280;26317;44.894;20.286;2023-10-13T04:30:27;101081.78;;;15.14;90.66
40612;BME280;26317;44.894;20.286;2023-10-13T04:33:10;101095.75;;;15.21;90.87
40612;BME280;26317;44.894;20.286;2023-10-13T04:36:09;101093.03;;;15.21;90.98
40612;BME280;26317;44.894;20.286;2023-10-13T04:39:06;101083.44;;;15.10;91.07
40612;BME280;26317;44.894;20.286;2023-10-13T04:42:01;101101.16;;;15.21;90.45
40612;BME280;26317;44.894;20.286;2023-10-13T04:44:50;101097.41;;;15.17;91.41
40612;BME280;26317;44.894;20.286;2023-10-13T04:47:47;101103.56;;;15.23;91.31
40612;BME280;26317;44.894;20.286;2023-10-13T04:50:29;101105.47;;;15.22;91.13
40612;BME280;26317;44.894;20.286;2023-10-13T04:53:22;101112.47;;;15.23;91.11
40612;BME280;26317;44.894;20.286;2023-10-13T04:56:23;101108.66;;;15.24;91.65
40612;BME280;26317;44.894;20.286;2023-10-13T04:59:09;101105.69;;;15.26;91.43
40612;BME280;26317;44.894;20.286;2023-10-13T05:02:17;101109.19;;;15.26;91.82
40612;BME280;26317;44.894;20.286;2023-10-13T05:05:04;101102.75;;;15.22;91.12
40612;BME280;26317;44.894;20.286;2023-10-13T05:08:03;101107.88;;;15.24;91.37
40612;BME280;26317;44.894;20.286;2023-10-13T05:11:05;101120.06;;;15.21;92.14
40612;BME280;26317;44.894;20.286;2023-10-13T05:14:05;101121.97;;;15.20;92.19
40612;BME280;26317;44.894;20.286;2023-10-13T05:16:52;101136.28;;;15.21;92.63
40612;BME280;26317;44.894;20.286;2023-10-13T05:19:42;101129.03;;;15.16;92.12
40612;BME280;26317;44.894;20.286;2023-10-13T05:22:41;101137.34;;;15.20;91.56
40612;BME280;26317;44.894;20.286;2023-10-13T05:25:28;101142.75;;;15.20;91.92
40612;BME280;26317;44.894;20.286;2023-10-13T05:28:17;101134.72;;;15.15;92.60
40612;BME280;26317;44.894;20.286;2023-10-13T05:31:16;101140.06;;;15.20;92.17
40612;BME280;26317;44.894;20.286;2023-10-13T05:34:19;101149.28;;;15.19;92.54
40612;BME280;26317;44.894;20.286;2023-10-13T05:37:06;101155.19;;;15.21;92.89
40612;BME280;26317;44.894;20.286;2023-10-13T05:39:56;101157.66;;;15.17;93.09
40612;BME280;26317;44.894;20.286;2023-10-13T05:42:40;101166.75;;;15.27;93.25
40612;BME280;26317;44.894;20.286;2023-10-13T05:45:31;101170.78;;;15.29;93.40
40612;BME280;26317;44.894;20.286;2023-10-13T05:48:43;101173.47;;;15.29;92.97
40612;BME280;26317;44.894;20.286;2023-10-13T05:51:38;101174.03;;;15.31;93.02
40612;BME280;26317;44.894;20.286;2023-10-13T05:54:29;101166.00;;;15.21;92.88
40612;BME280;26317;44.894;20.286;2023-10-13T05:57:18;101161.22;;;15.37;92.62
40612;BME280;26317;44.894;20.286;2023-10-13T06:00:17;101183.38;;;15.39;92.80
40612;BME280;26317;44.894;20.286;2023-10-13T06:03:14;101162.34;;;15.36;92.56
40612;BME280;26317;44.894;20.286;2023-10-13T06:06:11;101178.66;;;15.49;92.53
40612;BME280;26317;44.894;20.286;2023-10-13T06:09:08;101184.06;;;15.54;93.00
40612;BME280;26317;44.894;20.286;2023-10-13T06:12:00;101181.31;;;15.59;93.25
40612;BME280;26317;44.894;20.286;2023-10-13T06:14:47;101184.22;;;15.63;93.83
40612;BME280;26317;44.894;20.286;2023-10-13T06:17:36;101195.22;;;15.72;94.42
40612;BME280;26317;44.894;20.286;2023-10-13T06:20:22;101192.69;;;15.80;95.15
40612;BME280;26317;44.894;20.286;2023-10-13T06:23:12;101198.31;;;15.84;95.65
40612;BME280;26317;44.894;20.286;2023-10-13T06:26:06;101211.25;;;15.87;96.37
40612;BME280;26317;44.894;20.286;2023-10-13T06:28:56;101204.97;;;15.91;96.46
40612;BME280;26317;44.894;20.286;2023-10-13T06:31:46;101226.72;;;16.05;96.30
40612;BME280;26317;44.894;20.286;2023-10-13T06:34:24;101233.19;;;16.09;96.36
40612;BME280;26317;44.894;20.286;2023-10-13T06:37:14;101228.72;;;16.18;96.00
40612;BME280;26317;44.894;20.286;2023-10-13T06:40:17;101242.13;;;16.28;95.36
40612;BME280;26317;44.894;20.286;2023-10-13T06:43:05;101237.72;;;16.32;95.09
40612;BME280;26317;44.894;20.286;2023-10-13T06:45:57;101237.38;;;16.39;94.47
40612;BME280;26317;44.894;20.286;2023-10-13T06:48:46;101228.97;;;16.40;94.25
40612;BME280;26317;44.894;20.286;2023-10-13T06:51:23;101239.81;;;16.40;94.53
40612;BME280;26317;44.894;20.286;2023-10-13T06:54:07;101236.44;;;16.48;94.84
40612;BME280;26317;44.894;20.286;2023-10-13T06:56:58;101256.81;;;16.65;94.14
40612;BME280;26317;44.894;20.286;2023-10-13T06:59:44;101262.28;;;16.78;94.31
40612;BME280;26317;44.894;20.286;2023-10-13T07:02:22;101260.84;;;16.86;92.87
40612;BME280;26317;44.894;20.286;2023-10-13T07:05:08;101256.56;;;16.98;92.99
40612;BME280;26317;44.894;20.286;2023-10-13T07:07:45;101239.50;;;16.98;92.63
40612;BME280;26317;44.894;20.286;2023-10-13T07:10:38;101258.22;;;17.13;92.04
40612;BME280;26317;44.894;20.286;2023-10-13T07:13:21;101252.44;;;17.20;91.79
40612;BME280;26317;44.894;20.286;2023-10-13T07:16:04;101262.19;;;17.34;90.87
40612;BME280;26317;44.894;20.286;2023-10-13T07:18:56;101256.69;;;17.39;90.69
40612;BME280;26317;44.894;20.286;2023-10-13T07:21:39;101264.34;;;17.51;89.58
40612;BME280;26317;44.894;20.286;2023-10-13T07:24:17;101268.19;;;17.64;88.43
40612;BME280;26317;44.894;20.286;2023-10-13T07:26:59;101264.19;;;17.75;87.41
40612;BME280;26317;44.894;20.286;2023-10-13T07:29:49;101256.25;;;17.78;87.47
40612;BME280;26317;44.894;20.286;2023-10-13T07:32:55;101273.63;;;17.91;87.59
40612;BME280;26317;44.894;20.286;2023-10-13T07:35:44;101271.84;;;18.00;87.37
40612;BME280;26317;44.894;20.286;2023-10-13T07:38:23;101260.97;;;18.00;87.34
40612;BME280;26317;44.894;20.286;2023-10-13T07:41:03;101272.44;;;18.11;86.46
40612;BME280;26317;44.894;20.286;2023-10-13T07:44:04;101279.06;;;18.18;86.60
40612;BME280;26317;44.894;20.286;2023-10-13T07:46:51;101269.59;;;18.29;85.65
40612;BME280;26317;44.894;20.286;2023-10-13T07:49:40;101280.16;;;18.31;85.64
40612;BME280;26317;44.894;20.286;2023-10-13T07:52:22;101271.59;;;18.37;85.35
40612;BME280;26317;44.894;20.286;2023-10-13T07:55:14;101263.34;;;18.43;85.25
40612;BME280;26317;44.894;20.286;2023-10-13T07:57:51;101255.09;;;18.48;84.76
40612;BME280;26317;44.894;20.286;2023-10-13T08:00:38;101261.44;;;18.57;85.04
40612;BME280;26317;44.894;20.286;2023-10-13T08:03:45;101256.38;;;18.64;83.86
40612;BME280;26317;44.894;20.286;2023-10-13T08:06:48;101263.31;;;18.70;83.98
40612;BME280;26317;44.894;20.286;2023-10-13T08:09:34;101263.25;;;18.83;84.14
40612;BME280;26317;44.894;20.286;2023-10-13T08:12:21;101263.44;;;18.87;83.68
40612;BME280;26317;44.894;20.286;2023-10-13T08:14:59;101241.31;;;18.80;83.15
40612;BME280;26317;44.894;20.286;2023-10-13T08:17:46;101264.53;;;19.08;82.50
40612;BME280;26317;44.894;20.286;2023-10-13T08:20:29;101265.41;;;19.17;82.46
40612;BME280;26317;44.894;20.286;2023-10-13T08:23:11;101264.66;;;19.25;83.04
40612;BME280;26317;44.894;20.286;2023-10-13T08:26:09;101271.75;;;19.35;81.79
40612;BME280;26317;44.894;20.286;2023-10-13T08:28:57;101273.63;;;19.48;81.34
40612;BME280;26317;44.894;20.286;2023-10-13T08:32:00;101286.91;;;19.50;78.89
40612;BME280;26317;44.894;20.286;2023-10-13T08:35:00;101289.56;;;19.63;78.44
40612;BME280;26317;44.894;20.286;2023-10-13T08:38:03;101283.03;;;19.73;76.83
40612;BME280;26317;44.894;20.286;2023-10-13T08:41:01;101287.72;;;19.81;77.45
40612;BME280;26317;44.894;20.286;2023-10-13T08:44:04;101279.44;;;19.95;77.67
40612;BME280;26317;44.894;20.286;2023-10-13T08:47:10;101287.47;;;20.08;77.19
40612;BME280;26317;44.894;20.286;2023-10-13T08:49:52;101290.41;;;20.20;75.43
40612;BME280;26317;44.894;20.286;2023-10-13T08:52:42;101282.72;;;20.23;74.57
40612;BME280;26317;44.894;20.286;2023-10-13T08:55:30;101281.75;;;20.18;74.45
40612;BME280;26317;44.894;20.286;2023-10-13T08:58:18;101276.22;;;20.32;73.83
40612;BME280;26317;44.894;20.286;2023-10-13T09:01:01;101273.50;;;20.41;73.87
40612;BME280;26317;44.894;20.286;2023-10-13T09:03:43;101272.53;;;20.54;73.61
40612;BME280;26317;44.894;20.286;2023-10-13T09:06:27;101273.03;;;20.64;73.04
40612;BME280;26317;44.894;20.286;2023-10-13T09:09:11;101281.38;;;20.77;72.77
40612;BME280;26317;44.894;20.286;2023-10-13T09:12:06;101280.13;;;20.83;71.46
40612;BME280;26317;44.894;20.286;2023-10-13T09:14:54;101278.34;;;20.95;70.33
40612;BME280;26317;44.894;20.286;2023-10-13T09:17:43;101264.34;;;21.05;70.20
40612;BME280;26317;44.894;20.286;2023-10-13T09:20:30;101267.41;;;21.13;70.36
40612;BME280;26317;44.894;20.286;2023-10-13T09:23:23;101254.59;;;21.13;69.81
40612;BME280;26317;44.894;20.286;2023-10-13T09:26:13;101265.81;;;21.29;70.81
40612;BME280;26317;44.894;20.286;2023-10-13T09:29:15;101259.53;;;21.37;70.14
40612;BME280;26317;44.894;20.286;2023-10-13T09:32:04;101265.75;;;21.46;69.07
40612;BME280;26317;44.894;20.286;2023-10-13T09:34:43;101266.06;;;21.53;67.73
40612;BME280;26317;44.894;20.286;2023-10-13T09:37:24;101260.75;;;21.56;67.95
40612;BME280;26317;44.894;20.286;2023-10-13T09:40:08;101255.28;;;21.56;67.63
40612;BME280;26317;44.894;20.286;2023-10-13T09:42:55;101260.03;;;21.77;67.22
40612;BME280;26317;44.894;20.286;2023-10-13T09:45:43;101257.38;;;21.89;67.74
40612;BME280;26317;44.894;20.286;2023-10-13T09:48:36;101262.38;;;21.95;65.97
40612;BME280;26317;44.894;20.286;2023-10-13T09:51:17;101249.38;;;21.92;66.42
40612;BME280;26317;44.894;20.286;2023-10-13T09:54:08;101252.41;;;21.99;65.95
40612;BME280;26317;44.894;20.286;2023-10-13T09:57:10;101265.75;;;22.22;64.66
40612;BME280;26317;44.894;20.286;2023-10-13T09:59:51;101262.03;;;22.26;65.83
40612;BME280;26317;44.894;20.286;2023-10-13T10:02:47;101255.25;;;22.32;64.88
40612;BME280;26317;44.894;20.286;2023-10-13T10:05:24;101237.63;;;22.42;62.19
40612;BME280;26317;44.894;20.286;2023-10-13T10:08:08;101241.41;;;22.58;62.11
40612;BME280;26317;44.894;20.286;2023-10-13T10:11:04;101213.91;;;22.55;63.17
40612;BME280;26317;44.894;20.286;2023-10-13T10:13:52;101234.56;;;22.64;61.95
40612;BME280;26317;44.894;20.286;2023-10-13T10:16:39;101234.25;;;22.86;60.64
40612;BME280;26317;44.894;20.286;2023-10-13T10:19:27;101231.09;;;22.97;59.86
40612;BME280;26317;44.894;20.286;2023-10-13T10:22:24;101226.53;;;23.01;59.81
40612;BME280;26317;44.894;20.286;2023-10-13T10:25:12;101231.69;;;23.02;60.36
40612;BME280;26317;44.894;20.286;2023-10-13T10:28:01;101220.22;;;23.21;59.43
40612;BME280;26317;44.894;20.286;2023-10-13T10:30:38;101217.50;;;23.21;57.98
40612;BME280;26317;44.894;20.286;2023-10-13T10:33:12;101216.03;;;23.35;59.26
40612;BME280;26317;44.894;20.286;2023-10-13T10:36:04;101210.66;;;23.39;59.58
40612;BME280;26317;44.894;20.286;2023-10-13T10:38:56;101211.28;;;23.45;58.50
40612;BME280;26317;44.894;20.286;2023-10-13T10:41:37;101208.88;;;23.55;58.53
40612;BME280;26317;44.894;20.286;2023-10-13T10:44:15;101203.97;;;23.61;57.68
40612;BME280;26317;44.894;20.286;2023-10-13T10:46:56;101197.91;;;23.67;56.58
40612;BME280;26317;44.894;20.286;2023-10-13T10:49:40;101198.16;;;23.74;56.23
40612;BME280;26317;44.894;20.286;2023-10-13T10:52:19;101188.94;;;23.79;57.60
40612;BME280;26317;44.894;20.286;2023-10-13T10:55:01;101187.75;;;23.80;56.23
40612;BME280;26317;44.894;20.286;2023-10-13T10:57:39;101194.28;;;23.88;55.83
40612;BME280;26317;44.894;20.286;2023-10-13T11:00:18;101192.44;;;23.92;55.32
40612;BME280;26317;44.894;20.286;2023-10-13T11:03:05;101195.19;;;23.92;56.28
40612;BME280;26317;44.894;20.286;2023-10-13T11:05:51;101188.53;;;23.93;55.81
40612;BME280;26317;44.894;20.286;2023-10-13T11:08:43;101185.78;;;24.05;56.31
40612;BME280;26317;44.894;20.286;2023-10-13T11:11:28;101182.91;;;24.13;56.82
40612;BME280;26317;44.894;20.286;2023-10-13T11:14:20;101185.22;;;24.23;56.83
40612;BME280;26317;44.894;20.286;2023-10-13T11:16:57;101177.56;;;24.29;56.33
40612;BME280;26317;44.894;20.286;2023-10-13T11:19:42;101169.06;;;24.34;55.89
40612;BME280;26317;44.894;20.286;2023-10-13T11:22:17;101170.66;;;24.35;56.66
40612;BME280;26317;44.894;20.286;2023-10-13T11:25:21;101161.50;;;24.43;57.07
40612;BME280;26317;44.894;20.286;2023-10-13T11:27:58;101163.38;;;24.55;55.88
40612;BME280;26317;44.894;20.286;2023-10-13T11:30:45;101167.00;;;24.71;54.97
40612;BME280;26317;44.894;20.286;2023-10-13T11:33:23;101159.28;;;24.77;55.68
40612;BME280;26317;44.894;20.286;2023-10-13T11:36:05;101160.88;;;24.78;55.37
40612;BME280;26317;44.894;20.286;2023-10-13T11:38:48;101155.59;;;24.85;56.96
40612;BME280;26317;44.894;20.286;2023-10-13T11:41:36;101155.03;;;24.91;55.60
40612;BME280;26317;44.894;20.286;2023-10-13T11:44:18;101146.25;;;25.01;55.41
40612;BME280;26317;44.894;20.286;2023-10-13T11:46:59;101151.47;;;25.22;54.42
40612;BME280;26317;44.894;20.286;2023-10-13T11:49:51;101149.63;;;25.26;53.89
40612;BME280;26317;44.894;20.286;2023-10-13T11:52:28;101142.56;;;25.25;53.04
40612;BME280;26317;44.894;20.286;2023-10-13T11:55:03;101132.09;;;25.15;54.38
40612;BME280;26317;44.894;20.286;2023-10-13T11:57:44;101128.19;;;25.16;54.11
40612;BME280;26317;44.894;20.286;2023-10-13T12:00:19;101133.16;;;25.26;54.42
40612;BME280;26317;44.894;20.286;2023-10-13T12:03:22;101123.34;;;25.25;54.44
40612;BME280;26317;44.894;20.286;2023-10-13T12:06:09;101119.53;;;25.30;52.30
40612;BME280;26317;44.894;20.286;2023-10-13T12:09:00;101117.38;;;25.23;53.09
40612;BME280;26317;44.894;20.286;2023-10-13T12:11:48;101125.38;;;25.28;54.66
40612;BME280;26317;44.894;20.286;2023-10-13T12:14:27;101125.09;;;25.33;53.13
40612;BME280;26317;44.894;20.286;2023-10-13T12:17:08;101107.97;;;25.40;54.68
40612;BME280;26317;44.894;20.286;2023-10-13T12:19:44;101113.38;;;25.52;54.64
40612;BME280;26317;44.894;20.286;2023-10-13T12:22:20;101109.56;;;25.56;53.32
40612;BME280;26317;44.894;20.286;2023-10-13T12:25:03;101107.34;;;25.62;53.40
40612;BME280;26317;44.894;20.286;2023-10-13T12:27:50;101105.09;;;25.68;54.74
40612;BME280;26317;44.894;20.286;2023-10-13T12:30:30;101113.81;;;25.70;54.07
40612;BME280;26317;44.894;20.286;2023-10-13T12:33:17;101103.91;;;25.84;53.02
40612;BME280;26317;44.894;20.286;2023-10-13T12:36:06;101105.22;;;25.90;52.22
40612;BME280;26317;44.894;20.286;2023-10-13T12:39:17;101108.19;;;26.01;51.72
40612;BME280;26317;44.894;20.286;2023-10-13T12:42:01;101100.97;;;26.12;51.18
40612;BME280;26317;44.894;20.286;2023-10-13T12:44:48;101096.69;;;26.15;49.86
40612;BME280;26317;44.894;20.286;2023-10-13T12:47:51;101096.88;;;26.22;48.83
40612;BME280;26317;44.894;20.286;2023-10-13T12:50:49;101089.94;;;26.28;49.27
40612;BME280;26317;44.894;20.286;2023-10-13T12:53:37;101083.69;;;26.31;49.13
40612;BME280;26317;44.894;20.286;2023-10-13T12:56:14;101087.63;;;26.30;49.50
40612;BME280;26317;44.894;20.286;2023-10-13T12:58:56;101089.63;;;26.33;49.68
40612;BME280;26317;44.894;20.286;2023-10-13T13:01:36;101089.75;;;26.40;49.80
40612;BME280;26317;44.894;20.286;2023-10-13T13:04:15;101091.44;;;26.44;49.44
40612;BME280;26317;44.894;20.286;2023-10-13T13:06:57;101090.84;;;26.54;47.90
40612;BME280;26317;44.894;20.286;2023-10-13T13:09:31;101091.19;;;26.53;48.19
40612;BME280;26317;44.894;20.286;2023-10-13T13:12:07;101086.13;;;26.55;48.07
40612;BME280;26317;44.894;20.286;2023-10-13T13:14:41;101085.69;;;26.53;47.78
40612;BME280;26317;44.894;20.286;2023-10-13T13:17:17;101077.16;;;26.58;49.33
40612;BME280;26317;44.894;20.286;2023-10-13T13:20:01;101081.84;;;26.58;49.41
40612;BME280;26317;44.894;20.286;2023-10-13T13:22:40;101079.03;;;26.54;49.61
40612;BME280;26317;44.894;20.286;2023-10-13T13:25:19;101072.44;;;26.59;50.24
40612;BME280;26317;44.894;20.286;2023-10-13T13:28:04;101073.34;;;26.66;49.67
40612;BME280;26317;44.894;20.286;2023-10-13T13:30:43;101072.56;;;26.66;49.24
40612;BME280;26317;44.894;20.286;2023-10-13T13:33:24;101061.44;;;26.59;49.15
40612;BME280;26317;44.894;20.286;2023-10-13T13:36:06;101069.25;;;26.57;49.70
40612;BME280;26317;44.894;20.286;2023-10-13T13:38:45;101062.88;;;26.52;48.92
40612;BME280;26317;44.894;20.286;2023-10-13T13:41:20;101070.72;;;26.50;49.57
40612;BME280;26317;44.894;20.286;2023-10-13T13:43:53;101064.25;;;26.43;49.66
40612;BME280;26317;44.894;20.286;2023-10-13T13:46:44;101064.88;;;26.33;49.75
40612;BME280;26317;44.894;20.286;2023-10-13T13:49:25;101067.84;;;26.24;49.69
40612;BME280;26317;44.894;20.286;2023-10-13T13:52:18;101061.16;;;26.06;49.87
40612;BME280;26317;44.894;20.286;2023-10-13T13:55:01;101063.50;;;26.04;49.74
40612;BME280;26317;44.894;20.286;2023-10-13T13:57:55;101037.16;;;25.84;49.76
40612;BME280;26317;44.894;20.286;2023-10-13T14:00:34;101045.03;;;25.85;50.55
40612;BME280;26317;44.894;20.286;2023-10-13T14:03:17;101058.72;;;25.82;51.05
40612;BME280;26317;44.894;20.286;2023-10-13T14:06:03;101056.63;;;25.75;51.31
40612;BME280;26317;44.894;20.286;2023-10-13T14:08:39;101060.50;;;25.74;52.21
40612;BME280;26317;44.894;20.286;2023-10-13T14:11:13;101061.31;;;25.75;51.55
40612;BME280;26317;44.894;20.286;2023-10-13T14:14:15;101068.22;;;25.69;52.29
40612;BME280;26317;44.894;20.286;2023-10-13T14:16:57;101049.19;;;25.60;51.60
40612;BME280;26317;44.894;20.286;2023-10-13T14:19:39;101051.59;;;25.61;52.02